sensor_id;sensor_type;location;lat;lon;timestamp;P1;durP1;ratioP1;P2;durP2;ratioP2
34657;SDS011;20865;43.312;27.152;2022-09-27T00:01:05;4.55;;;2.92;;
34657;SDS011;20865;43.312;27.152;2022-09-27T00:03:34;3.92;;;3.02;;
34657;SDS011;20865;43.312;27.152;2022-09-27T00:06:03;3.58;;;3.02;;
34657;SDS011;20865;43.312;27.152;2022-09-27T00:08:35;7.83;;;3.58;;
34657;SDS011;20865;43.312;27.152;2022-09-27T00:11:04;4.78;;;3.12;;
34657;SDS011;20865;43.312;27.152;2022-09-27T00:13:34;9.05;;;4.00;;
34657;SDS011;20865;43.312;27.152;2022-09-27T00:16:02;4.15;;;3.08;;
34657;SDS011;20865;43.312;27.152;2022-09-27T00:18:30;5.40;;;3.00;;
34657;SDS011;20865;43.312;27.152;2022-09-27T00:21:08;5.05;;;3.45;;
34657;SDS011;20865;43.312;27.152;2022-09-27T00:23:35;4.45;;;2.83;;
34657;SDS011;20865;43.312;27.152;2022-09-27T00:26:04;5.45;;;3.60;;
34657;SDS011;20865;43.312;27.152;2022-09-27T00:28:33;4.12;;;3.50;;
34657;SDS011;20865;43.312;27.152;2022-09-27T00:31:01;9.35;;;3.77;;
34657;SDS011;20865;43.312;27.152;2022-09-27T00:33:29;7.67;;;3.62;;
34657;SDS011;20865;43.312;27.152;2022-09-27T00:36:04;10.05;;;3.40;;
34657;SDS011;20865;43.312;27.152;2022-09-27T00:38:32;6.05;;;3.30;;
34657;SDS011;20865;43.312;27.152;2022-09-27T00:41:00;7.65;;;3.40;;
34657;SDS011;20865;43.312;27.152;2022-09-27T00:43:45;4.40;;;2.90;;
34657;SDS011;20865;43.312;27.152;2022-09-27T00:46:15;4.83;;;3.20;;
34657;SDS011;20865;43.312;27.152;2022-09-27T00:48:45;5.42;;;3.85;;
34657;SDS011;20865;43.312;27.152;2022-09-27T00:51:14;7.00;;;3.20;;
34657;SDS011;20865;43.312;27.152;2022-09-27T00:53:47;6.20;;;3.27;;
34657;SDS011;20865;43.312;27.152;2022-09-27T00:56:19;4.78;;;3.25;;
34657;SDS011;20865;43.312;27.152;2022-09-27T00:58:51;5.65;;;4.10;;
34657;SDS011;20865;43.312;27.152;2022-09-27T01:01:20;5.65;;;3.72;;
34657;SDS011;20865;43.312;27.152;2022-09-27T01:03:50;5.17;;;3.10;;
34657;SDS011;20865;43.312;27.152;2022-09-27T01:06:19;4.87;;;3.67;;
34657;SDS011;20865;43.312;27.152;2022-09-27T01:08:48;4.65;;;3.50;;
34657;SDS011;20865;43.312;27.152;2022-09-27T01:11:18;5.47;;;3.52;;
34657;SDS011;20865;43.312;27.152;2022-09-27T01:14:03;6.17;;;3.35;;
34657;SDS011;20865;43.312;27.152;2022-09-27T01:16:58;7.30;;;3.70;;
34657;SDS011;20865;43.312;27.152;2022-09-27T01:22:06;4.92;;;3.50;;
34657;SDS011;20865;43.312;27.152;2022-09-27T01:30:06;5.28;;;3.47;;
34657;SDS011;20865;43.312;27.152;2022-09-27T01:32:32;5.00;;;3.37;;
34657;SDS011;20865;43.312;27.152;2022-09-27T01:37:53;5.30;;;3.70;;
34657;SDS011;20865;43.312;27.152;2022-09-27T01:40:31;7.95;;;4.00;;
34657;SDS011;20865;43.312;27.152;2022-09-27T01:43:04;8.15;;;3.98;;
34657;SDS011;20865;43.312;27.152;2022-09-27T01:45:41;11.70;;;4.40;;
34657;SDS011;20865;43.312;27.152;2022-09-27T01:48:11;5.28;;;3.42;;
34657;SDS011;20865;43.312;27.152;2022-09-27T01:50:49;6.95;;;4.10;;
34657;SDS011;20865;43.312;27.152;2022-09-27T01:53:18;5.60;;;3.75;;
34657;SDS011;20865;43.312;27.152;2022-09-27T01:55:50;7.67;;;3.98;;
34657;SDS011;20865;43.312;27.152;2022-09-27T01:58:22;5.12;;;3.45;;
34657;SDS011;20865;43.312;27.152;2022-09-27T02:00:53;4.53;;;3.77;;
34657;SDS011;20865;43.312;27.152;2022-09-27T02:03:23;5.47;;;3.35;;
34657;SDS011;20865;43.312;27.152;2022-09-27T02:05:58;5.72;;;3.70;;
34657;SDS011;20865;43.312;27.152;2022-09-27T02:08:33;7.37;;;4.65;;
34657;SDS011;20865;43.312;27.152;2022-09-27T02:11:16;6.83;;;4.85;;
34657;SDS011;20865;43.312;27.152;2022-09-27T02:14:05;6.75;;;4.65;;
34657;SDS011;20865;43.312;27.152;2022-09-27T02:17:03;6.25;;;4.25;;
34657;SDS011;20865;43.312;27.152;2022-09-27T02:22:14;4.83;;;3.75;;
34657;SDS011;20865;43.312;27.152;2022-09-27T02:25:27;5.83;;;4.15;;
34657;SDS011;20865;43.312;27.152;2022-09-27T02:27:27;7.97;;;4.30;;
34657;SDS011;20865;43.312;27.152;2022-09-27T02:30:09;9.18;;;4.22;;
34657;SDS011;20865;43.312;27.152;2022-09-27T02:32:38;12.45;;;4.90;;
34657;SDS011;20865;43.312;27.152;2022-09-27T02:35:17;6.15;;;3.98;;
34657;SDS011;20865;43.312;27.152;2022-09-27T02:37:46;8.45;;;4.95;;
34657;SDS011;20865;43.312;27.152;2022-09-27T02:40:15;10.08;;;6.50;;
34657;SDS011;20865;43.312;27.152;2022-09-27T02:42:43;9.40;;;7.05;;
34657;SDS011;20865;43.312;27.152;2022-09-27T02:45:13;9.48;;;5.90;;
34657;SDS011;20865;43.312;27.152;2022-09-27T02:47:47;7.00;;;5.42;;
34657;SDS011;20865;43.312;27.152;2022-09-27T02:53:11;6.67;;;5.22;;
34657;SDS011;20865;43.312;27.152;2022-09-27T02:58:15;10.95;;;4.92;;
34657;SDS011;20865;43.312;27.152;2022-09-27T03:03:44;7.97;;;4.05;;
34657;SDS011;20865;43.312;27.152;2022-09-27T03:06:10;8.05;;;4.67;;
34657;SDS011;20865;43.312;27.152;2022-09-27T03:08:40;6.12;;;4.10;;
34657;SDS011;20865;43.312;27.152;2022-09-27T03:11:09;7.45;;;4.75;;
34657;SDS011;20865;43.312;27.152;2022-09-27T03:13:37;6.67;;;4.78;;
34657;SDS011;20865;43.312;27.152;2022-09-27T03:16:05;8.53;;;4.30;;
34657;SDS011;20865;43.312;27.152;2022-09-27T03:18:33;7.03;;;4.20;;
34657;SDS011;20865;43.312;27.152;2022-09-27T03:21:01;8.55;;;5.03;;
34657;SDS011;20865;43.312;27.152;2022-09-27T03:23:28;10.13;;;4.58;;
34657;SDS011;20865;43.312;27.152;2022-09-27T03:25:56;6.87;;;4.83;;
34657;SDS011;20865;43.312;27.152;2022-09-27T03:28:24;5.55;;;3.98;;
34657;SDS011;20865;43.312;27.152;2022-09-27T03:30:53;5.05;;;4.08;;
34657;SDS011;20865;43.312;27.152;2022-09-27T03:33:21;6.72;;;4.45;;
34657;SDS011;20865;43.312;27.152;2022-09-27T03:35:49;5.87;;;3.83;;
34657;SDS011;20865;43.312;27.152;2022-09-27T03:38:16;6.72;;;4.80;;
34657;SDS011;20865;43.312;27.152;2022-09-27T03:40:44;7.22;;;4.67;;
34657;SDS011;20865;43.312;27.152;2022-09-27T03:43:12;6.47;;;4.17;;
34657;SDS011;20865;43.312;27.152;2022-09-27T03:45:41;7.00;;;4.47;;
34657;SDS011;20865;43.312;27.152;2022-09-27T03:48:12;6.85;;;4.90;;
34657;SDS011;20865;43.312;27.152;2022-09-27T03:50:40;9.10;;;5.00;;
34657;SDS011;20865;43.312;27.152;2022-09-27T03:53:07;9.80;;;5.22;;
34657;SDS011;20865;43.312;27.152;2022-09-27T03:55:35;10.28;;;4.87;;
34657;SDS011;20865;43.312;27.152;2022-09-27T03:58:03;11.50;;;3.98;;
34657;SDS011;20865;43.312;27.152;2022-09-27T04:00:30;7.10;;;4.75;;
34657;SDS011;20865;43.312;27.152;2022-09-27T04:02:58;8.05;;;5.25;;
34657;SDS011;20865;43.312;27.152;2022-09-27T04:05:26;7.15;;;4.55;;
34657;SDS011;20865;43.312;27.152;2022-09-27T04:07:54;8.85;;;4.50;;
34657;SDS011;20865;43.312;27.152;2022-09-27T04:10:22;7.50;;;5.10;;
34657;SDS011;20865;43.312;27.152;2022-09-27T04:12:50;7.65;;;4.72;;
34657;SDS011;20865;43.312;27.152;2022-09-27T04:15:17;6.97;;;5.03;;
34657;SDS011;20865;43.312;27.152;2022-09-27T04:17:45;6.55;;;5.00;;
34657;SDS011;20865;43.312;27.152;2022-09-27T04:20:13;8.73;;;5.22;;
34657;SDS011;20865;43.312;27.152;2022-09-27T04:22:41;10.48;;;4.72;;
34657;SDS011;20865;43.312;27.152;2022-09-27T04:25:10;7.33;;;5.05;;
34657;SDS011;20865;43.312;27.152;2022-09-27T04:27:38;9.80;;;5.00;;
34657;SDS011;20865;43.312;27.152;2022-09-27T04:30:08;11.22;;;5.22;;
34657;SDS011;20865;43.312;27.152;2022-09-27T04:32:40;8.40;;;5.17;;
34657;SDS011;20865;43.312;27.152;2022-09-27T04:35:09;6.67;;;4.72;;
34657;SDS011;20865;43.312;27.152;2022-09-27T04:37:56;13.45;;;4.53;;
34657;SDS011;20865;43.312;27.152;2022-09-27T04:40:23;13.43;;;4.87;;
34657;SDS011;20865;43.312;27.152;2022-09-27T04:42:51;7.60;;;5.10;;
34657;SDS011;20865;43.312;27.152;2022-09-27T04:45:19;6.30;;;4.80;;
34657;SDS011;20865;43.312;27.152;2022-09-27T04:47:47;7.33;;;4.42;;
34657;SDS011;20865;43.312;27.152;2022-09-27T04:50:16;7.37;;;4.97;;
34657;SDS011;20865;43.312;27.152;2022-09-27T04:52:49;6.75;;;4.83;;
34657;SDS011;20865;43.312;27.152;2022-09-27T04:55:17;9.35;;;5.08;;
34657;SDS011;20865;43.312;27.152;2022-09-27T04:57:46;7.95;;;4.97;;
34657;SDS011;20865;43.312;27.152;2022-09-27T05:00:14;8.05;;;4.85;;
34657;SDS011;20865;43.312;27.152;2022-09-27T05:02:43;8.43;;;5.80;;
34657;SDS011;20865;43.312;27.152;2022-09-27T05:05:13;9.38;;;6.15;;
34657;SDS011;20865;43.312;27.152;2022-09-27T05:07:41;7.95;;;5.10;;
34657;SDS011;20865;43.312;27.152;2022-09-27T05:10:08;9.65;;;6.83;;
34657;SDS011;20865;43.312;27.152;2022-09-27T05:12:36;7.30;;;5.15;;
34657;SDS011;20865;43.312;27.152;2022-09-27T05:15:04;7.75;;;5.12;;
34657;SDS011;20865;43.312;27.152;2022-09-27T05:17:32;7.70;;;5.65;;
34657;SDS011;20865;43.312;27.152;2022-09-27T05:20:00;9.80;;;5.40;;
34657;SDS011;20865;43.312;27.152;2022-09-27T05:22:28;8.45;;;5.60;;
34657;SDS011;20865;43.312;27.152;2022-09-27T05:24:56;7.75;;;5.47;;
34657;SDS011;20865;43.312;27.152;2022-09-27T05:27:24;8.00;;;5.35;;
34657;SDS011;20865;43.312;27.152;2022-09-27T05:29:51;7.40;;;5.75;;
34657;SDS011;20865;43.312;27.152;2022-09-27T05:32:19;9.05;;;5.65;;
34657;SDS011;20865;43.312;27.152;2022-09-27T05:34:48;10.58;;;6.20;;
34657;SDS011;20865;43.312;27.152;2022-09-27T05:37:17;8.08;;;5.83;;
34657;SDS011;20865;43.312;27.152;2022-09-27T05:39:45;10.05;;;6.05;;
34657;SDS011;20865;43.312;27.152;2022-09-27T05:42:14;7.72;;;5.58;;
34657;SDS011;20865;43.312;27.152;2022-09-27T05:44:42;8.98;;;6.10;;
34657;SDS011;20865;43.312;27.152;2022-09-27T05:47:11;6.80;;;4.90;;
34657;SDS011;20865;43.312;27.152;2022-09-27T05:49:40;8.88;;;5.47;;
34657;SDS011;20865;43.312;27.152;2022-09-27T05:52:08;9.90;;;5.72;;
34657;SDS011;20865;43.312;27.152;2022-09-27T05:54:36;10.60;;;4.97;;
34657;SDS011;20865;43.312;27.152;2022-09-27T05:57:04;7.03;;;4.58;;
34657;SDS011;20865;43.312;27.152;2022-09-27T05:59:33;7.15;;;5.33;;
34657;SDS011;20865;43.312;27.152;2022-09-27T06:02:00;11.10;;;5.08;;
34657;SDS011;20865;43.312;27.152;2022-09-27T06:04:28;7.65;;;5.20;;
34657;SDS011;20865;43.312;27.152;2022-09-27T06:06:56;7.03;;;4.62;;
34657;SDS011;20865;43.312;27.152;2022-09-27T06:09:24;7.97;;;5.12;;
34657;SDS011;20865;43.312;27.152;2022-09-27T06:11:53;8.35;;;5.60;;
34657;SDS011;20865;43.312;27.152;2022-09-27T06:14:21;8.83;;;5.00;;
34657;SDS011;20865;43.312;27.152;2022-09-27T06:16:49;7.03;;;5.10;;
34657;SDS011;20865;43.312;27.152;2022-09-27T06:19:18;7.15;;;5.35;;
34657;SDS011;20865;43.312;27.152;2022-09-27T06:21:48;7.15;;;5.12;;
34657;SDS011;20865;43.312;27.152;2022-09-27T06:24:15;6.55;;;4.67;;
34657;SDS011;20865;43.312;27.152;2022-09-27T06:26:43;7.95;;;5.28;;
34657;SDS011;20865;43.312;27.152;2022-09-27T06:29:10;9.33;;;5.37;;
34657;SDS011;20865;43.312;27.152;2022-09-27T06:31:38;6.90;;;4.90;;
34657;SDS011;20865;43.312;27.152;2022-09-27T06:34:06;8.18;;;5.40;;
34657;SDS011;20865;43.312;27.152;2022-09-27T06:36:33;6.92;;;4.62;;
34657;SDS011;20865;43.312;27.152;2022-09-27T06:39:01;6.45;;;3.95;;
34657;SDS011;20865;43.312;27.152;2022-09-27T06:41:29;7.17;;;4.10;;
34657;SDS011;20865;43.312;27.152;2022-09-27T06:43:58;7.70;;;4.50;;
34657;SDS011;20865;43.312;27.152;2022-09-27T06:46:26;5.00;;;4.05;;
34657;SDS011;20865;43.312;27.152;2022-09-27T06:48:53;6.12;;;4.08;;
34657;SDS011;20865;43.312;27.152;2022-09-27T06:51:21;5.85;;;4.30;;
34657;SDS011;20865;43.312;27.152;2022-09-27T06:53:49;5.28;;;3.83;;
34657;SDS011;20865;43.312;27.152;2022-09-27T06:56:17;5.78;;;4.40;;
34657;SDS011;20865;43.312;27.152;2022-09-27T06:58:44;6.58;;;4.15;;
34657;SDS011;20865;43.312;27.152;2022-09-27T07:01:30;7.10;;;4.83;;
34657;SDS011;20865;43.312;27.152;2022-09-27T07:03:57;7.05;;;4.67;;
34657;SDS011;20865;43.312;27.152;2022-09-27T07:06:25;5.45;;;4.10;;
34657;SDS011;20865;43.312;27.152;2022-09-27T07:08:53;6.53;;;4.33;;
34657;SDS011;20865;43.312;27.152;2022-09-27T07:11:20;9.00;;;4.30;;
34657;SDS011;20865;43.312;27.152;2022-09-27T07:13:51;6.08;;;4.42;;
34657;SDS011;20865;43.312;27.152;2022-09-27T07:16:19;5.92;;;3.98;;
34657;SDS011;20865;43.312;27.152;2022-09-27T07:18:47;7.12;;;4.37;;
34657;SDS011;20865;43.312;27.152;2022-09-27T07:21:16;8.20;;;4.22;;
34657;SDS011;20865;43.312;27.152;2022-09-27T07:23:43;7.58;;;3.98;;
34657;SDS011;20865;43.312;27.152;2022-09-27T07:26:11;4.47;;;3.62;;
34657;SDS011;20865;43.312;27.152;2022-09-27T07:28:39;6.25;;;3.70;;
34657;SDS011;20865;43.312;27.152;2022-09-27T07:31:07;4.67;;;3.67;;
34657;SDS011;20865;43.312;27.152;2022-09-27T07:33:35;5.37;;;3.80;;
34657;SDS011;20865;43.312;27.152;2022-09-27T07:36:06;6.87;;;3.08;;
34657;SDS011;20865;43.312;27.152;2022-09-27T07:38:35;8.20;;;3.87;;
34657;SDS011;20865;43.312;27.152;2022-09-27T07:41:07;6.00;;;3.33;;
34657;SDS011;20865;43.312;27.152;2022-09-27T07:43:38;5.20;;;3.20;;
34657;SDS011;20865;43.312;27.152;2022-09-27T07:46:08;4.78;;;3.40;;
34657;SDS011;20865;43.312;27.152;2022-09-27T07:48:36;4.95;;;3.50;;
34657;SDS011;20865;43.312;27.152;2022-09-27T07:51:04;4.80;;;3.35;;
34657;SDS011;20865;43.312;27.152;2022-09-27T07:53:34;5.10;;;3.15;;
34657;SDS011;20865;43.312;27.152;2022-09-27T07:56:01;5.42;;;3.67;;
34657;SDS011;20865;43.312;27.152;2022-09-27T07:58:29;7.08;;;3.37;;
34657;SDS011;20865;43.312;27.152;2022-09-27T08:00:58;4.80;;;3.40;;
34657;SDS011;20865;43.312;27.152;2022-09-27T08:03:27;4.33;;;3.50;;
34657;SDS011;20865;43.312;27.152;2022-09-27T08:05:55;4.00;;;3.35;;
34657;SDS011;20865;43.312;27.152;2022-09-27T08:08:23;5.30;;;3.58;;
34657;SDS011;20865;43.312;27.152;2022-09-27T08:10:51;4.25;;;3.50;;
34657;SDS011;20865;43.312;27.152;2022-09-27T08:13:18;4.47;;;3.50;;
34657;SDS011;20865;43.312;27.152;2022-09-27T08:15:47;5.05;;;3.90;;
34657;SDS011;20865;43.312;27.152;2022-09-27T08:18:17;5.53;;;4.00;;
34657;SDS011;20865;43.312;27.152;2022-09-27T08:20:46;8.90;;;3.98;;
34657;SDS011;20865;43.312;27.152;2022-09-27T08:23:14;4.90;;;3.58;;
34657;SDS011;20865;43.312;27.152;2022-09-27T08:25:41;3.95;;;3.20;;
34657;SDS011;20865;43.312;27.152;2022-09-27T08:28:09;5.62;;;3.80;;
34657;SDS011;20865;43.312;27.152;2022-09-27T08:30:36;5.20;;;3.72;;
34657;SDS011;20865;43.312;27.152;2022-09-27T08:33:04;4.42;;;3.80;;
34657;SDS011;20865;43.312;27.152;2022-09-27T08:35:32;4.87;;;3.95;;
34657;SDS011;20865;43.312;27.152;2022-09-27T08:38:00;7.25;;;3.90;;
34657;SDS011;20865;43.312;27.152;2022-09-27T08:40:48;5.17;;;3.65;;
34657;SDS011;20865;43.312;27.152;2022-09-27T08:48:26;5.25;;;3.62;;
34657;SDS011;20865;43.312;27.152;2022-09-27T08:50:55;4.28;;;3.47;;
34657;SDS011;20865;43.312;27.152;2022-09-27T08:53:32;4.78;;;3.95;;
34657;SDS011;20865;43.312;27.152;2022-09-27T08:56:00;5.67;;;3.87;;
34657;SDS011;20865;43.312;27.152;2022-09-27T09:01:03;4.80;;;4.05;;
34657;SDS011;20865;43.312;27.152;2022-09-27T09:03:34;5.60;;;4.50;;
34657;SDS011;20865;43.312;27.152;2022-09-27T09:06:10;5.40;;;4.22;;
34657;SDS011;20865;43.312;27.152;2022-09-27T09:08:50;5.00;;;3.80;;
34657;SDS011;20865;43.312;27.152;2022-09-27T09:11:37;6.15;;;4.15;;
34657;SDS011;20865;43.312;27.152;2022-09-27T09:22:48;5.53;;;3.92;;
34657;SDS011;20865;43.312;27.152;2022-09-27T09:28:18;5.55;;;4.87;;
34657;SDS011;20865;43.312;27.152;2022-09-27T09:33:45;5.42;;;3.92;;
34657;SDS011;20865;43.312;27.152;2022-09-27T09:38:42;9.80;;;5.10;;
34657;SDS011;20865;43.312;27.152;2022-09-27T09:41:30;5.35;;;4.70;;
34657;SDS011;20865;43.312;27.152;2022-09-27T09:44:20;7.12;;;4.30;;
34657;SDS011;20865;43.312;27.152;2022-09-27T09:46:50;5.42;;;4.37;;
34657;SDS011;20865;43.312;27.152;2022-09-27T09:49:21;5.17;;;4.10;;
34657;SDS011;20865;43.312;27.152;2022-09-27T09:51:58;6.85;;;4.35;;
34657;SDS011;20865;43.312;27.152;2022-09-27T10:02:16;5.37;;;4.42;;
34657;SDS011;20865;43.312;27.152;2022-09-27T10:04:46;5.65;;;4.37;;
34657;SDS011;20865;43.312;27.152;2022-09-27T10:07:14;7.42;;;4.87;;
34657;SDS011;20865;43.312;27.152;2022-09-27T10:09:44;4.90;;;4.40;;
34657;SDS011;20865;43.312;27.152;2022-09-27T10:12:12;5.72;;;4.50;;
34657;SDS011;20865;43.312;27.152;2022-09-27T10:14:40;6.35;;;4.42;;
34657;SDS011;20865;43.312;27.152;2022-09-27T10:17:10;6.03;;;4.75;;
34657;SDS011;20865;43.312;27.152;2022-09-27T10:19:40;5.67;;;4.40;;
34657;SDS011;20865;43.312;27.152;2022-09-27T10:24:56;9.75;;;5.35;;
34657;SDS011;20865;43.312;27.152;2022-09-27T10:27:27;5.35;;;4.50;;
34657;SDS011;20865;43.312;27.152;2022-09-27T10:29:59;5.95;;;4.25;;
34657;SDS011;20865;43.312;27.152;2022-09-27T10:32:31;6.72;;;4.83;;
34657;SDS011;20865;43.312;27.152;2022-09-27T10:35:31;5.65;;;4.33;;
34657;SDS011;20865;43.312;27.152;2022-09-27T10:37:49;5.17;;;4.20;;
34657;SDS011;20865;43.312;27.152;2022-09-27T10:40:24;6.75;;;5.37;;
34657;SDS011;20865;43.312;27.152;2022-09-27T10:42:58;5.08;;;4.53;;
34657;SDS011;20865;43.312;27.152;2022-09-27T10:45:27;4.70;;;4.25;;
34657;SDS011;20865;43.312;27.152;2022-09-27T10:47:56;6.67;;;4.08;;
34657;SDS011;20865;43.312;27.152;2022-09-27T10:50:27;6.75;;;4.87;;
34657;SDS011;20865;43.312;27.152;2022-09-27T10:53:00;5.20;;;3.98;;
34657;SDS011;20865;43.312;27.152;2022-09-27T10:55:39;4.53;;;3.85;;
34657;SDS011;20865;43.312;27.152;2022-09-27T10:58:15;5.22;;;4.05;;
34657;SDS011;20865;43.312;27.152;2022-09-27T11:00:52;7.15;;;3.80;;
34657;SDS011;20865;43.312;27.152;2022-09-27T11:03:22;4.55;;;4.12;;
34657;SDS011;20865;43.312;27.152;2022-09-27T11:05:52;4.55;;;4.05;;
34657;SDS011;20865;43.312;27.152;2022-09-27T11:13:57;7.80;;;4.33;;
34657;SDS011;20865;43.312;27.152;2022-09-27T11:30:23;7.78;;;4.33;;
34657;SDS011;20865;43.312;27.152;2022-09-27T11:35:37;4.20;;;3.42;;
34657;SDS011;20865;43.312;27.152;2022-09-27T11:38:23;4.60;;;3.90;;
34657;SDS011;20865;43.312;27.152;2022-09-27T11:45:53;4.53;;;3.75;;
34657;SDS011;20865;43.312;27.152;2022-09-27T12:02:28;5.47;;;3.52;;
34657;SDS011;20865;43.312;27.152;2022-09-27T12:10:34;5.03;;;3.90;;
34657;SDS011;20865;43.312;27.152;2022-09-27T12:13:04;7.60;;;3.77;;
34657;SDS011;20865;43.312;27.152;2022-09-27T12:15:35;4.35;;;2.92;;
34657;SDS011;20865;43.312;27.152;2022-09-27T12:18:07;3.83;;;3.50;;
34657;SDS011;20865;43.312;27.152;2022-09-27T12:20:53;3.85;;;3.17;;
34657;SDS011;20865;43.312;27.152;2022-09-27T12:23:28;6.97;;;4.25;;
34657;SDS011;20865;43.312;27.152;2022-09-27T12:25:55;4.83;;;3.52;;
34657;SDS011;20865;43.312;27.152;2022-09-27T12:28:47;4.22;;;3.55;;
34657;SDS011;20865;43.312;27.152;2022-09-27T12:31:10;3.33;;;3.02;;
34657;SDS011;20865;43.312;27.152;2022-09-27T12:34:13;4.08;;;3.05;;
34657;SDS011;20865;43.312;27.152;2022-09-27T12:36:35;4.75;;;3.33;;
34657;SDS011;20865;43.312;27.152;2022-09-27T12:39:24;9.23;;;4.05;;
34657;SDS011;20865;43.312;27.152;2022-09-27T12:42:02;5.25;;;3.52;;
34657;SDS011;20865;43.312;27.152;2022-09-27T12:44:37;4.42;;;3.22;;
34657;SDS011;20865;43.312;27.152;2022-09-27T12:50:02;5.55;;;3.33;;
34657;SDS011;20865;43.312;27.152;2022-09-27T12:52:40;10.03;;;4.30;;
34657;SDS011;20865;43.312;27.152;2022-09-27T12:58:24;4.58;;;3.25;;
34657;SDS011;20865;43.312;27.152;2022-09-27T13:09:26;4.17;;;3.12;;
34657;SDS011;20865;43.312;27.152;2022-09-27T13:12:17;5.05;;;2.83;;
34657;SDS011;20865;43.312;27.152;2022-09-27T13:14:49;4.92;;;3.72;;
34657;SDS011;20865;43.312;27.152;2022-09-27T13:20:43;5.75;;;3.95;;
34657;SDS011;20865;43.312;27.152;2022-09-27T13:25:50;4.78;;;3.37;;
34657;SDS011;20865;43.312;27.152;2022-09-27T13:31:07;11.68;;;5.15;;
34657;SDS011;20865;43.312;27.152;2022-09-27T13:33:49;3.45;;;3.15;;
34657;SDS011;20865;43.312;27.152;2022-09-27T13:36:29;3.58;;;2.90;;
34657;SDS011;20865;43.312;27.152;2022-09-27T13:47:02;4.72;;;3.50;;
34657;SDS011;20865;43.312;27.152;2022-09-27T13:49:37;4.58;;;3.22;;
34657;SDS011;20865;43.312;27.152;2022-09-27T13:52:15;5.47;;;3.70;;
34657;SDS011;20865;43.312;27.152;2022-09-27T13:54:49;4.97;;;3.72;;
34657;SDS011;20865;43.312;27.152;2022-09-27T14:02:48;3.60;;;2.80;;
34657;SDS011;20865;43.312;27.152;2022-09-27T14:08:19;5.60;;;3.42;;
34657;SDS011;20865;43.312;27.152;2022-09-27T14:10:47;6.62;;;2.98;;
34657;SDS011;20865;43.312;27.152;2022-09-27T14:13:17;4.55;;;3.50;;
34657;SDS011;20865;43.312;27.152;2022-09-27T14:15:46;8.90;;;3.52;;
34657;SDS011;20865;43.312;27.152;2022-09-27T14:18:15;9.73;;;3.02;;
34657;SDS011;20865;43.312;27.152;2022-09-27T14:20:48;4.03;;;3.17;;
34657;SDS011;20865;43.312;27.152;2022-09-27T14:23:20;3.37;;;2.75;;
34657;SDS011;20865;43.312;27.152;2022-09-27T14:25:50;5.08;;;3.62;;
34657;SDS011;20865;43.312;27.152;2022-09-27T14:28:22;4.00;;;3.12;;
34657;SDS011;20865;43.312;27.152;2022-09-27T14:33:44;4.53;;;2.95;;
34657;SDS011;20865;43.312;27.152;2022-09-27T14:36:31;3.95;;;3.02;;
34657;SDS011;20865;43.312;27.152;2022-09-27T14:39:21;4.97;;;3.40;;
34657;SDS011;20865;43.312;27.152;2022-09-27T14:42:02;4.47;;;3.58;;
34657;SDS011;20865;43.312;27.152;2022-09-27T14:44:33;4.12;;;3.02;;
34657;SDS011;20865;43.312;27.152;2022-09-27T14:47:08;4.83;;;3.17;;
34657;SDS011;20865;43.312;27.152;2022-09-27T14:49:54;3.40;;;2.98;;
34657;SDS011;20865;43.312;27.152;2022-09-27T14:52:31;4.50;;;2.92;;
34657;SDS011;20865;43.312;27.152;2022-09-27T14:55:00;5.78;;;3.37;;
34657;SDS011;20865;43.312;27.152;2022-09-27T14:57:33;5.05;;;3.45;;
34657;SDS011;20865;43.312;27.152;2022-09-27T15:00:20;3.87;;;3.25;;
34657;SDS011;20865;43.312;27.152;2022-09-27T15:02:45;5.97;;;3.70;;
34657;SDS011;20865;43.312;27.152;2022-09-27T15:05:18;4.40;;;3.08;;
34657;SDS011;20865;43.312;27.152;2022-09-27T15:07:47;9.85;;;3.52;;
34657;SDS011;20865;43.312;27.152;2022-09-27T15:10:20;7.35;;;3.33;;
34657;SDS011;20865;43.312;27.152;2022-09-27T15:12:51;4.55;;;2.90;;
34657;SDS011;20865;43.312;27.152;2022-09-27T15:15:56;4.62;;;3.17;;
34657;SDS011;20865;43.312;27.152;2022-09-27T15:18:02;4.20;;;3.37;;
34657;SDS011;20865;43.312;27.152;2022-09-27T15:20:52;5.37;;;3.50;;
34657;SDS011;20865;43.312;27.152;2022-09-27T15:23:29;5.97;;;3.35;;
34657;SDS011;20865;43.312;27.152;2022-09-27T15:26:13;4.25;;;3.50;;
34657;SDS011;20865;43.312;27.152;2022-09-27T15:28:33;3.25;;;2.90;;
34657;SDS011;20865;43.312;27.152;2022-09-27T15:31:04;8.18;;;3.55;;
34657;SDS011;20865;43.312;27.152;2022-09-27T15:33:32;4.08;;;3.35;;
34657;SDS011;20865;43.312;27.152;2022-09-27T15:36:02;4.30;;;3.47;;
34657;SDS011;20865;43.312;27.152;2022-09-27T15:38:32;6.78;;;4.25;;
34657;SDS011;20865;43.312;27.152;2022-09-27T15:41:16;5.95;;;3.75;;
34657;SDS011;20865;43.312;27.152;2022-09-27T15:43:42;5.53;;;4.00;;
34657;SDS011;20865;43.312;27.152;2022-09-27T15:51:46;10.90;;;6.92;;
34657;SDS011;20865;43.312;27.152;2022-09-27T15:54:19;8.08;;;6.33;;
34657;SDS011;20865;43.312;27.152;2022-09-27T15:56:48;7.97;;;5.70;;
34657;SDS011;20865;43.312;27.152;2022-09-27T15:59:24;6.00;;;4.40;;
34657;SDS011;20865;43.312;27.152;2022-09-27T16:01:49;8.53;;;4.70;;
34657;SDS011;20865;43.312;27.152;2022-09-27T16:04:19;6.62;;;4.85;;
34657;SDS011;20865;43.312;27.152;2022-09-27T16:06:46;9.65;;;4.62;;
34657;SDS011;20865;43.312;27.152;2022-09-27T16:09:18;4.72;;;4.25;;
34657;SDS011;20865;43.312;27.152;2022-09-27T16:11:47;6.95;;;4.75;;
34657;SDS011;20865;43.312;27.152;2022-09-27T16:14:16;6.92;;;4.22;;
34657;SDS011;20865;43.312;27.152;2022-09-27T16:16:45;8.33;;;5.33;;
34657;SDS011;20865;43.312;27.152;2022-09-27T16:19:14;5.97;;;4.25;;
34657;SDS011;20865;43.312;27.152;2022-09-27T16:21:42;5.97;;;4.20;;
34657;SDS011;20865;43.312;27.152;2022-09-27T16:24:10;6.30;;;4.28;;
34657;SDS011;20865;43.312;27.152;2022-09-27T16:26:38;6.95;;;4.80;;
34657;SDS011;20865;43.312;27.152;2022-09-27T16:29:10;6.47;;;5.28;;
34657;SDS011;20865;43.312;27.152;2022-09-27T16:31:39;6.75;;;4.50;;
34657;SDS011;20865;43.312;27.152;2022-09-27T16:34:07;8.85;;;5.62;;
34657;SDS011;20865;43.312;27.152;2022-09-27T16:36:36;10.03;;;5.10;;
34657;SDS011;20865;43.312;27.152;2022-09-27T16:39:05;6.30;;;4.80;;
34657;SDS011;20865;43.312;27.152;2022-09-27T16:41:34;9.08;;;4.92;;
34657;SDS011;20865;43.312;27.152;2022-09-27T16:44:06;8.83;;;4.67;;
34657;SDS011;20865;43.312;27.152;2022-09-27T16:46:38;11.45;;;5.53;;
34657;SDS011;20865;43.312;27.152;2022-09-27T16:49:06;6.53;;;4.62;;
34657;SDS011;20865;43.312;27.152;2022-09-27T16:51:35;7.58;;;5.15;;
34657;SDS011;20865;43.312;27.152;2022-09-27T16:54:20;6.72;;;4.45;;
34657;SDS011;20865;43.312;27.152;2022-09-27T16:56:50;8.13;;;4.87;;
34657;SDS011;20865;43.312;27.152;2022-09-27T16:59:17;7.28;;;4.70;;
34657;SDS011;20865;43.312;27.152;2022-09-27T17:01:45;6.75;;;4.55;;
34657;SDS011;20865;43.312;27.152;2022-09-27T17:04:14;8.08;;;5.17;;
34657;SDS011;20865;43.312;27.152;2022-09-27T17:06:41;7.65;;;4.97;;
34657;SDS011;20865;43.312;27.152;2022-09-27T17:09:09;6.42;;;4.75;;
34657;SDS011;20865;43.312;27.152;2022-09-27T17:11:36;6.35;;;4.40;;
34657;SDS011;20865;43.312;27.152;2022-09-27T17:14:04;6.53;;;4.50;;
34657;SDS011;20865;43.312;27.152;2022-09-27T17:16:32;7.10;;;4.58;;
34657;SDS011;20865;43.312;27.152;2022-09-27T17:18:59;7.00;;;5.25;;
34657;SDS011;20865;43.312;27.152;2022-09-27T17:21:27;8.93;;;5.00;;
34657;SDS011;20865;43.312;27.152;2022-09-27T17:23:54;9.13;;;5.70;;
34657;SDS011;20865;43.312;27.152;2022-09-27T17:26:22;9.28;;;5.65;;
34657;SDS011;20865;43.312;27.152;2022-09-27T17:28:52;10.63;;;7.03;;